sensor_id;sensor_type;location;lat;lon;timestamp;P1;durP1;ratioP1;P2;durP2;ratioP2
36747;SDS011;22716;51.556;5.080;2023-06-24T00:01:56;6.87;;;4.67;;
36747;SDS011;22716;51.556;5.080;2023-06-24T00:04:23;8.65;;;4.07;;
36747;SDS011;22716;51.556;5.080;2023-06-24T00:06:49;6.00;;;3.77;;
36747;SDS011;22716;51.556;5.080;2023-06-24T00:09:17;10.63;;;4.50;;
36747;SDS011;22716;51.556;5.080;2023-06-24T00:11:45;5.23;;;4.73;;
36747;SDS011;22716;51.556;5.080;2023-06-24T00:14:13;3.53;;;3.20;;
36747;SDS011;22716;51.556;5.080;2023-06-24T00:16:40;7.73;;;3.70;;
36747;SDS011;22716;51.556;5.080;2023-06-24T00:19:07;5.00;;;3.80;;
36747;SDS011;22716;51.556;5.080;2023-06-24T00:21:34;8.27;;;3.90;;
36747;SDS011;22716;51.556;5.080;2023-06-24T00:24:03;7.20;;;5.80;;
36747;SDS011;22716;51.556;5.080;2023-06-24T00:26:30;6.77;;;5.03;;
36747;SDS011;22716;51.556;5.080;2023-06-24T00:28:59;8.17;;;4.10;;
36747;SDS011;22716;51.556;5.080;2023-06-24T00:31:25;10.50;;;4.23;;
36747;SDS011;22716;51.556;5.080;2023-06-24T00:33:52;6.53;;;4.00;;
36747;SDS011;22716;51.556;5.080;2023-06-24T00:36:20;6.90;;;4.00;;
36747;SDS011;22716;51.556;5.080;2023-06-24T00:38:47;4.60;;;3.30;;
36747;SDS011;22716;51.556;5.080;2023-06-24T00:41:15;6.17;;;4.23;;
36747;SDS011;22716;51.556;5.080;2023-06-24T00:43:43;5.23;;;4.17;;
36747;SDS011;22716;51.556;5.080;2023-06-24T00:46:12;5.43;;;3.90;;
36747;SDS011;22716;51.556;5.080;2023-06-24T00:48:39;4.93;;;4.13;;
36747;SDS011;22716;51.556;5.080;2023-06-24T00:51:06;4.90;;;4.33;;
36747;SDS011;22716;51.556;5.080;2023-06-24T00:53:32;5.67;;;3.13;;
36747;SDS011;22716;51.556;5.080;2023-06-24T00:55:59;4.47;;;3.50;;
36747;SDS011;22716;51.556;5.080;2023-06-24T00:58:31;6.40;;;3.33;;
36747;SDS011;22716;51.556;5.080;2023-06-24T01:01:02;3.73;;;3.40;;
36747;SDS011;22716;51.556;5.080;2023-06-24T01:03:30;4.30;;;3.63;;
36747;SDS011;22716;51.556;5.080;2023-06-24T01:05:57;3.50;;;2.67;;
36747;SDS011;22716;51.556;5.080;2023-06-24T01:08:24;5.57;;;3.43;;
36747;SDS011;22716;51.556;5.080;2023-06-24T01:10:51;5.63;;;3.87;;
36747;SDS011;22716;51.556;5.080;2023-06-24T01:13:18;4.47;;;3.17;;
36747;SDS011;22716;51.556;5.080;2023-06-24T01:15:45;3.80;;;2.60;;
36747;SDS011;22716;51.556;5.080;2023-06-24T01:18:14;3.37;;;3.03;;
36747;SDS011;22716;51.556;5.080;2023-06-24T01:20:54;8.63;;;3.50;;
36747;SDS011;22716;51.556;5.080;2023-06-24T01:26:39;5.50;;;3.30;;
36747;SDS011;22716;51.556;5.080;2023-06-24T01:29:28;4.13;;;3.20;;
36747;SDS011;22716;51.556;5.080;2023-06-24T01:32:12;5.10;;;3.13;;
36747;SDS011;22716;51.556;5.080;2023-06-24T01:34:43;3.57;;;3.27;;
36747;SDS011;22716;51.556;5.080;2023-06-24T01:37:20;3.53;;;2.80;;
36747;SDS011;22716;51.556;5.080;2023-06-24T01:39:54;6.13;;;3.20;;
36747;SDS011;22716;51.556;5.080;2023-06-24T01:42:32;5.23;;;2.97;;
36747;SDS011;22716;51.556;5.080;2023-06-24T01:45:00;3.78;;;3.15;;
36747;SDS011;22716;51.556;5.080;2023-06-24T01:47:29;4.23;;;3.00;;
36747;SDS011;22716;51.556;5.080;2023-06-24T01:49:57;7.30;;;3.60;;
36747;SDS011;22716;51.556;5.080;2023-06-24T01:52:27;6.60;;;3.80;;
36747;SDS011;22716;51.556;5.080;2023-06-24T01:54:58;4.70;;;3.60;;
36747;SDS011;22716;51.556;5.080;2023-06-24T01:57:26;5.10;;;3.70;;
36747;SDS011;22716;51.556;5.080;2023-06-24T01:59:55;7.37;;;3.97;;
36747;SDS011;22716;51.556;5.080;2023-06-24T02:02:24;5.73;;;3.43;;
36747;SDS011;22716;51.556;5.080;2023-06-24T02:04:54;5.27;;;3.50;;
36747;SDS011;22716;51.556;5.080;2023-06-24T02:07:23;4.63;;;3.50;;
36747;SDS011;22716;51.556;5.080;2023-06-24T02:09:52;5.73;;;4.13;;
36747;SDS011;22716;51.556;5.080;2023-06-24T02:12:21;16.03;;;4.60;;
36747;SDS011;22716;51.556;5.080;2023-06-24T02:14:50;5.95;;;4.38;;
36747;SDS011;22716;51.556;5.080;2023-06-24T02:17:18;11.13;;;5.40;;
36747;SDS011;22716;51.556;5.080;2023-06-24T02:19:46;9.68;;;5.85;;
36747;SDS011;22716;51.556;5.080;2023-06-24T02:22:16;9.57;;;5.63;;
36747;SDS011;22716;51.556;5.080;2023-06-24T02:24:44;6.35;;;5.75;;
36747;SDS011;22716;51.556;5.080;2023-06-24T02:27:12;8.23;;;6.43;;
36747;SDS011;22716;51.556;5.080;2023-06-24T02:29:39;6.87;;;5.73;;
36747;SDS011;22716;51.556;5.080;2023-06-24T02:32:07;7.43;;;5.90;;
36747;SDS011;22716;51.556;5.080;2023-06-24T02:34:35;8.17;;;6.17;;
36747;SDS011;22716;51.556;5.080;2023-06-24T02:37:02;10.52;;;6.18;;
36747;SDS011;22716;51.556;5.080;2023-06-24T02:39:30;10.55;;;6.38;;
36747;SDS011;22716;51.556;5.080;2023-06-24T02:41:57;8.90;;;7.20;;
36747;SDS011;22716;51.556;5.080;2023-06-24T02:44:24;8.97;;;7.40;;
36747;SDS011;22716;51.556;5.080;2023-06-24T02:46:51;9.88;;;5.88;;
36747;SDS011;22716;51.556;5.080;2023-06-24T02:49:19;8.45;;;6.63;;
36747;SDS011;22716;51.556;5.080;2023-06-24T02:51:47;8.48;;;6.60;;
36747;SDS011;22716;51.556;5.080;2023-06-24T02:54:15;8.27;;;6.43;;
36747;SDS011;22716;51.556;5.080;2023-06-24T02:56:43;14.23;;;7.20;;
36747;SDS011;22716;51.556;5.080;2023-06-24T02:59:10;9.67;;;6.03;;
36747;SDS011;22716;51.556;5.080;2023-06-24T03:01:37;8.73;;;6.53;;
36747;SDS011;22716;51.556;5.080;2023-06-24T03:04:10;6.57;;;5.67;;
36747;SDS011;22716;51.556;5.080;2023-06-24T03:06:37;7.13;;;5.93;;
36747;SDS011;22716;51.556;5.080;2023-06-24T03:09:05;8.10;;;6.67;;
36747;SDS011;22716;51.556;5.080;2023-06-24T03:11:39;8.82;;;6.28;;
36747;SDS011;22716;51.556;5.080;2023-06-24T03:14:08;14.67;;;6.83;;
36747;SDS011;22716;51.556;5.080;2023-06-24T03:16:36;11.15;;;6.95;;
36747;SDS011;22716;51.556;5.080;2023-06-24T03:19:04;13.10;;;6.07;;
36747;SDS011;22716;51.556;5.080;2023-06-24T03:21:31;12.23;;;7.57;;
36747;SDS011;22716;51.556;5.080;2023-06-24T03:23:58;10.03;;;7.23;;
36747;SDS011;22716;51.556;5.080;2023-06-24T03:26:25;9.30;;;6.68;;
36747;SDS011;22716;51.556;5.080;2023-06-24T03:28:58;11.02;;;7.40;;
36747;SDS011;22716;51.556;5.080;2023-06-24T03:31:26;8.95;;;6.93;;
36747;SDS011;22716;51.556;5.080;2023-06-24T03:33:53;10.33;;;7.50;;
36747;SDS011;22716;51.556;5.080;2023-06-24T03:36:20;11.90;;;6.95;;
36747;SDS011;22716;51.556;5.080;2023-06-24T03:38:46;11.13;;;7.05;;
36747;SDS011;22716;51.556;5.080;2023-06-24T03:41:13;9.25;;;6.93;;
36747;SDS011;22716;51.556;5.080;2023-06-24T03:43:40;8.43;;;6.07;;
36747;SDS011;22716;51.556;5.080;2023-06-24T03:46:08;11.27;;;5.82;;
36747;SDS011;22716;51.556;5.080;2023-06-24T03:48:37;8.43;;;7.35;;
36747;SDS011;22716;51.556;5.080;2023-06-24T03:51:04;9.43;;;5.93;;
36747;SDS011;22716;51.556;5.080;2023-06-24T03:53:31;8.60;;;6.72;;
36747;SDS011;22716;51.556;5.080;2023-06-24T03:55:58;10.35;;;6.80;;
36747;SDS011;22716;51.556;5.080;2023-06-24T03:58:26;8.83;;;6.17;;
36747;SDS011;22716;51.556;5.080;2023-06-24T04:00:53;7.85;;;6.78;;
36747;SDS011;22716;51.556;5.080;2023-06-24T04:03:23;10.45;;;6.95;;
36747;SDS011;22716;51.556;5.080;2023-06-24T04:05:53;13.38;;;8.38;;
36747;SDS011;22716;51.556;5.080;2023-06-24T04:08:21;8.97;;;7.13;;
36747;SDS011;22716;51.556;5.080;2023-06-24T04:10:50;15.05;;;7.82;;
36747;SDS011;22716;51.556;5.080;2023-06-24T04:13:17;9.68;;;8.02;;
36747;SDS011;22716;51.556;5.080;2023-06-24T04:15:44;11.55;;;8.15;;
36747;SDS011;22716;51.556;5.080;2023-06-24T04:18:11;11.73;;;8.70;;
36747;SDS011;22716;51.556;5.080;2023-06-24T04:20:38;9.97;;;7.67;;
36747;SDS011;22716;51.556;5.080;2023-06-24T04:23:06;13.93;;;9.17;;
36747;SDS011;22716;51.556;5.080;2023-06-24T04:25:34;14.10;;;9.05;;
36747;SDS011;22716;51.556;5.080;2023-06-24T04:28:01;14.27;;;8.82;;
36747;SDS011;22716;51.556;5.080;2023-06-24T04:30:29;21.48;;;10.15;;
36747;SDS011;22716;51.556;5.080;2023-06-24T04:32:56;11.15;;;9.77;;
36747;SDS011;22716;51.556;5.080;2023-06-24T04:35:23;16.97;;;10.70;;
36747;SDS011;22716;51.556;5.080;2023-06-24T04:37:50;14.55;;;11.50;;
36747;SDS011;22716;51.556;5.080;2023-06-24T04:40:18;13.43;;;10.10;;
36747;SDS011;22716;51.556;5.080;2023-06-24T04:42:45;16.93;;;10.83;;
36747;SDS011;22716;51.556;5.080;2023-06-24T04:45:12;19.23;;;9.93;;
36747;SDS011;22716;51.556;5.080;2023-06-24T04:47:38;12.87;;;9.30;;
36747;SDS011;22716;51.556;5.080;2023-06-24T04:50:06;17.47;;;10.57;;
36747;SDS011;22716;51.556;5.080;2023-06-24T04:52:35;13.73;;;11.45;;
36747;SDS011;22716;51.556;5.080;2023-06-24T04:55:03;13.88;;;10.70;;
36747;SDS011;22716;51.556;5.080;2023-06-24T04:57:32;14.77;;;9.77;;
36747;SDS011;22716;51.556;5.080;2023-06-24T04:59:59;16.90;;;10.73;;
36747;SDS011;22716;51.556;5.080;2023-06-24T05:02:26;12.88;;;10.23;;
36747;SDS011;22716;51.556;5.080;2023-06-24T05:04:53;13.30;;;9.98;;
36747;SDS011;22716;51.556;5.080;2023-06-24T05:07:20;14.68;;;9.93;;
36747;SDS011;22716;51.556;5.080;2023-06-24T05:09:47;13.05;;;9.65;;
36747;SDS011;22716;51.556;5.080;2023-06-24T05:12:16;11.48;;;8.65;;
36747;SDS011;22716;51.556;5.080;2023-06-24T05:14:48;13.25;;;9.95;;
36747;SDS011;22716;51.556;5.080;2023-06-24T05:17:17;13.68;;;9.68;;
36747;SDS011;22716;51.556;5.080;2023-06-24T05:19:44;16.98;;;10.20;;
36747;SDS011;22716;51.556;5.080;2023-06-24T05:22:11;14.37;;;8.97;;
36747;SDS011;22716;51.556;5.080;2023-06-24T05:24:38;12.57;;;9.82;;
36747;SDS011;22716;51.556;5.080;2023-06-24T05:27:06;16.17;;;10.00;;
36747;SDS011;22716;51.556;5.080;2023-06-24T05:29:34;22.27;;;10.87;;
36747;SDS011;22716;51.556;5.080;2023-06-24T05:32:03;12.90;;;9.70;;
36747;SDS011;22716;51.556;5.080;2023-06-24T05:34:31;13.73;;;11.30;;
36747;SDS011;22716;51.556;5.080;2023-06-24T05:36:59;14.05;;;9.93;;
36747;SDS011;22716;51.556;5.080;2023-06-24T05:39:26;11.83;;;9.50;;
36747;SDS011;22716;51.556;5.080;2023-06-24T05:41:52;12.50;;;8.40;;
36747;SDS011;22716;51.556;5.080;2023-06-24T05:44:19;12.25;;;9.68;;
36747;SDS011;22716;51.556;5.080;2023-06-24T05:46:48;14.27;;;8.88;;
36747;SDS011;22716;51.556;5.080;2023-06-24T05:49:16;11.60;;;8.13;;
36747;SDS011;22716;51.556;5.080;2023-06-24T05:51:42;13.90;;;9.87;;
36747;SDS011;22716;51.556;5.080;2023-06-24T05:54:09;10.63;;;8.53;;
36747;SDS011;22716;51.556;5.080;2023-06-24T05:56:37;12.10;;;8.30;;
36747;SDS011;22716;51.556;5.080;2023-06-24T05:59:04;14.87;;;9.13;;
36747;SDS011;22716;51.556;5.080;2023-06-24T06:01:30;12.17;;;8.17;;
36747;SDS011;22716;51.556;5.080;2023-06-24T06:03:57;16.02;;;9.20;;
36747;SDS011;22716;51.556;5.080;2023-06-24T06:06:25;12.03;;;9.07;;
36747;SDS011;22716;51.556;5.080;2023-06-24T06:08:52;14.23;;;9.43;;
36747;SDS011;22716;51.556;5.080;2023-06-24T06:11:19;13.83;;;9.87;;
36747;SDS011;22716;51.556;5.080;2023-06-24T06:13:45;13.53;;;8.03;;
36747;SDS011;22716;51.556;5.080;2023-06-24T06:16:12;11.13;;;8.50;;
36747;SDS011;22716;51.556;5.080;2023-06-24T06:18:39;13.00;;;8.47;;
36747;SDS011;22716;51.556;5.080;2023-06-24T06:21:06;11.20;;;8.50;;
36747;SDS011;22716;51.556;5.080;2023-06-24T06:23:34;12.55;;;8.63;;
36747;SDS011;22716;51.556;5.080;2023-06-24T06:26:00;13.93;;;10.40;;
36747;SDS011;22716;51.556;5.080;2023-06-24T06:28:27;12.37;;;9.00;;
36747;SDS011;22716;51.556;5.080;2023-06-24T06:30:54;14.53;;;8.37;;
36747;SDS011;22716;51.556;5.080;2023-06-24T06:33:22;10.57;;;8.77;;
36747;SDS011;22716;51.556;5.080;2023-06-24T06:35:49;10.18;;;8.70;;
36747;SDS011;22716;51.556;5.080;2023-06-24T06:38:15;10.00;;;7.73;;
36747;SDS011;22716;51.556;5.080;2023-06-24T06:40:44;10.97;;;7.53;;
36747;SDS011;22716;51.556;5.080;2023-06-24T06:43:10;9.75;;;7.43;;
36747;SDS011;22716;51.556;5.080;2023-06-24T06:45:37;10.17;;;7.27;;
36747;SDS011;22716;51.556;5.080;2023-06-24T06:48:04;12.77;;;8.53;;
36747;SDS011;22716;51.556;5.080;2023-06-24T06:50:33;9.93;;;7.80;;
36747;SDS011;22716;51.556;5.080;2023-06-24T06:53:00;9.20;;;7.90;;
36747;SDS011;22716;51.556;5.080;2023-06-24T06:55:27;11.27;;;8.27;;
36747;SDS011;22716;51.556;5.080;2023-06-24T06:57:55;11.83;;;7.70;;
36747;SDS011;22716;51.556;5.080;2023-06-24T07:00:21;27.85;;;9.30;;
36747;SDS011;22716;51.556;5.080;2023-06-24T07:02:48;11.57;;;8.77;;
36747;SDS011;22716;51.556;5.080;2023-06-24T07:05:15;9.27;;;8.03;;
36747;SDS011;22716;51.556;5.080;2023-06-24T07:07:42;9.88;;;7.30;;
36747;SDS011;22716;51.556;5.080;2023-06-24T07:10:10;9.67;;;7.80;;
36747;SDS011;22716;51.556;5.080;2023-06-24T07:12:37;11.13;;;7.97;;
36747;SDS011;22716;51.556;5.080;2023-06-24T07:15:06;11.97;;;8.63;;
36747;SDS011;22716;51.556;5.080;2023-06-24T07:17:34;10.98;;;7.50;;
36747;SDS011;22716;51.556;5.080;2023-06-24T07:20:01;9.18;;;7.10;;
36747;SDS011;22716;51.556;5.080;2023-06-24T07:22:28;11.05;;;7.90;;
36747;SDS011;22716;51.556;5.080;2023-06-24T07:24:56;11.17;;;8.30;;
36747;SDS011;22716;51.556;5.080;2023-06-24T07:27:22;13.00;;;7.23;;
36747;SDS011;22716;51.556;5.080;2023-06-24T07:29:49;8.87;;;7.13;;
36747;SDS011;22716;51.556;5.080;2023-06-24T07:32:17;10.68;;;7.70;;
36747;SDS011;22716;51.556;5.080;2023-06-24T07:34:44;9.70;;;7.30;;
36747;SDS011;22716;51.556;5.080;2023-06-24T07:37:11;12.00;;;8.10;;
36747;SDS011;22716;51.556;5.080;2023-06-24T07:39:37;8.67;;;7.07;;
36747;SDS011;22716;51.556;5.080;2023-06-24T07:42:05;11.73;;;7.47;;
36747;SDS011;22716;51.556;5.080;2023-06-24T07:44:32;12.20;;;8.50;;
36747;SDS011;22716;51.556;5.080;2023-06-24T07:46:58;10.18;;;8.10;;
36747;SDS011;22716;51.556;5.080;2023-06-24T07:49:26;8.65;;;6.88;;
36747;SDS011;22716;51.556;5.080;2023-06-24T07:51:53;12.70;;;7.68;;
36747;SDS011;22716;51.556;5.080;2023-06-24T07:54:20;10.52;;;7.78;;
36747;SDS011;22716;51.556;5.080;2023-06-24T07:56:47;9.43;;;6.85;;
36747;SDS011;22716;51.556;5.080;2023-06-24T07:59:13;9.53;;;6.50;;
36747;SDS011;22716;51.556;5.080;2023-06-24T08:01:40;8.90;;;7.45;;
36747;SDS011;22716;51.556;5.080;2023-06-24T08:04:07;9.93;;;7.82;;
36747;SDS011;22716;51.556;5.080;2023-06-24T08:06:35;14.48;;;9.18;;
36747;SDS011;22716;51.556;5.080;2023-06-24T08:09:02;11.98;;;6.43;;
36747;SDS011;22716;51.556;5.080;2023-06-24T08:11:29;8.45;;;6.53;;
36747;SDS011;22716;51.556;5.080;2023-06-24T08:13:56;12.48;;;7.90;;
36747;SDS011;22716;51.556;5.080;2023-06-24T08:16:22;11.45;;;6.75;;
36747;SDS011;22716;51.556;5.080;2023-06-24T08:18:49;10.63;;;8.47;;
36747;SDS011;22716;51.556;5.080;2023-06-24T08:21:16;10.88;;;7.97;;
36747;SDS011;22716;51.556;5.080;2023-06-24T08:23:45;9.98;;;6.97;;
36747;SDS011;22716;51.556;5.080;2023-06-24T08:26:12;11.27;;;7.27;;
36747;SDS011;22716;51.556;5.080;2023-06-24T08:28:39;12.53;;;6.97;;
36747;SDS011;22716;51.556;5.080;2023-06-24T08:31:05;9.45;;;7.63;;
36747;SDS011;22716;51.556;5.080;2023-06-24T08:33:32;9.82;;;6.93;;
36747;SDS011;22716;51.556;5.080;2023-06-24T08:35:59;9.20;;;6.15;;
36747;SDS011;22716;51.556;5.080;2023-06-24T08:38:26;8.38;;;6.45;;
36747;SDS011;22716;51.556;5.080;2023-06-24T08:40:54;7.10;;;5.78;;
36747;SDS011;22716;51.556;5.080;2023-06-24T08:43:21;9.63;;;6.03;;
36747;SDS011;22716;51.556;5.080;2023-06-24T08:45:48;8.60;;;6.47;;
36747;SDS011;22716;51.556;5.080;2023-06-24T08:48:15;7.68;;;6.68;;
36747;SDS011;22716;51.556;5.080;2023-06-24T08:50:44;7.82;;;6.20;;
36747;SDS011;22716;51.556;5.080;2023-06-24T08:53:16;7.93;;;6.00;;
36747;SDS011;22716;51.556;5.080;2023-06-24T08:55:46;9.20;;;6.55;;
36747;SDS011;22716;51.556;5.080;2023-06-24T08:58:20;10.20;;;6.82;;
36747;SDS011;22716;51.556;5.080;2023-06-24T09:00:47;9.02;;;6.93;;
36747;SDS011;22716;51.556;5.080;2023-06-24T09:03:14;11.05;;;7.57;;
36747;SDS011;22716;51.556;5.080;2023-06-24T09:05:41;7.30;;;4.75;;
36747;SDS011;22716;51.556;5.080;2023-06-24T09:08:09;8.32;;;5.15;;
36747;SDS011;22716;51.556;5.080;2023-06-24T09:10:36;9.40;;;6.07;;
36747;SDS011;22716;51.556;5.080;2023-06-24T09:13:05;8.85;;;6.38;;
36747;SDS011;22716;51.556;5.080;2023-06-24T09:15:34;7.78;;;5.50;;
36747;SDS011;22716;51.556;5.080;2023-06-24T09:18:03;9.43;;;5.30;;
36747;SDS011;22716;51.556;5.080;2023-06-24T09:20:31;9.65;;;5.43;;
36747;SDS011;22716;51.556;5.080;2023-06-24T09:25:31;7.93;;;5.72;;
36747;SDS011;22716;51.556;5.080;2023-06-24T09:27:58;10.67;;;6.03;;
36747;SDS011;22716;51.556;5.080;2023-06-24T09:30:25;5.90;;;4.93;;
36747;SDS011;22716;51.556;5.080;2023-06-24T09:32:54;9.00;;;5.40;;
36747;SDS011;22716;51.556;5.080;2023-06-24T09:35:23;7.88;;;5.00;;
36747;SDS011;22716;51.556;5.080;2023-06-24T09:37:51;13.20;;;5.70;;
36747;SDS011;22716;51.556;5.080;2023-06-24T09:40:18;7.28;;;5.72;;
36747;SDS011;22716;51.556;5.080;2023-06-24T09:42:49;9.02;;;5.30;;
36747;SDS011;22716;51.556;5.080;2023-06-24T09:45:19;7.90;;;5.82;;
36747;SDS011;22716;51.556;5.080;2023-06-24T09:47:48;8.40;;;5.63;;
36747;SDS011;22716;51.556;5.080;2023-06-24T09:50:16;9.27;;;5.85;;
36747;SDS011;22716;51.556;5.080;2023-06-24T09:52:44;7.22;;;5.15;;
36747;SDS011;22716;51.556;5.080;2023-06-24T09:55:11;9.23;;;5.85;;
36747;SDS011;22716;51.556;5.080;2023-06-24T09:57:39;7.03;;;5.20;;
36747;SDS011;22716;51.556;5.080;2023-06-24T10:00:08;5.70;;;4.40;;
36747;SDS011;22716;51.556;5.080;2023-06-24T10:02:37;5.88;;;3.95;;
36747;SDS011;22716;51.556;5.080;2023-06-24T10:05:04;9.73;;;3.85;;
36747;SDS011;22716;51.556;5.080;2023-06-24T10:07:33;13.80;;;4.57;;
36747;SDS011;22716;51.556;5.080;2023-06-24T10:10:02;5.55;;;4.90;;
36747;SDS011;22716;51.556;5.080;2023-06-24T10:12:30;5.57;;;4.55;;
36747;SDS011;22716;51.556;5.080;2023-06-24T10:14:57;5.95;;;4.57;;
36747;SDS011;22716;51.556;5.080;2023-06-24T10:17:25;6.35;;;4.60;;
36747;SDS011;22716;51.556;5.080;2023-06-24T10:19:51;7.45;;;4.38;;
36747;SDS011;22716;51.556;5.080;2023-06-24T10:22:21;7.65;;;5.30;;
36747;SDS011;22716;51.556;5.080;2023-06-24T10:24:51;13.65;;;5.10;;
36747;SDS011;22716;51.556;5.080;2023-06-24T10:27:20;7.90;;;5.80;;
36747;SDS011;22716;51.556;5.080;2023-06-24T10:29:49;7.60;;;4.47;;
36747;SDS011;22716;51.556;5.080;2023-06-24T10:32:17;9.52;;;5.18;;
36747;SDS011;22716;51.556;5.080;2023-06-24T10:34:45;7.15;;;4.75;;
36747;SDS011;22716;51.556;5.080;2023-06-24T10:37:14;9.95;;;3.90;;
36747;SDS011;22716;51.556;5.080;2023-06-24T10:39:45;5.30;;;4.38;;
36747;SDS011;22716;51.556;5.080;2023-06-24T10:42:37;5.55;;;4.05;;
36747;SDS011;22716;51.556;5.080;2023-06-24T10:45:13;7.40;;;5.13;;
36747;SDS011;22716;51.556;5.080;2023-06-24T10:47:43;4.05;;;3.38;;
36747;SDS011;22716;51.556;5.080;2023-06-24T10:50:12;5.78;;;3.78;;
36747;SDS011;22716;51.556;5.080;2023-06-24T10:52:40;4.28;;;3.22;;
36747;SDS011;22716;51.556;5.080;2023-06-24T10:55:08;6.05;;;3.28;;
36747;SDS011;22716;51.556;5.080;2023-06-24T10:57:36;4.72;;;3.60;;
36747;SDS011;22716;51.556;5.080;2023-06-24T11:00:03;4.53;;;3.38;;
36747;SDS011;22716;51.556;5.080;2023-06-24T11:02:31;7.70;;;3.28;;
36747;SDS011;22716;51.556;5.080;2023-06-24T11:04:58;4.72;;;3.67;;
36747;SDS011;22716;51.556;5.080;2023-06-24T11:07:26;4.75;;;2.90;;
36747;SDS011;22716;51.556;5.080;2023-06-24T11:09:56;6.55;;;5.68;;
36747;SDS011;22716;51.556;5.080;2023-06-24T11:12:25;5.20;;;3.63;;
36747;SDS011;22716;51.556;5.080;2023-06-24T11:14:56;6.95;;;3.22;;
36747;SDS011;22716;51.556;5.080;2023-06-24T11:17:24;6.93;;;3.75;;
36747;SDS011;22716;51.556;5.080;2023-06-24T11:19:52;8.57;;;3.83;;
36747;SDS011;22716;51.556;5.080;2023-06-24T11:22:19;6.10;;;4.13;;
36747;SDS011;22716;51.556;5.080;2023-06-24T11:24:46;7.60;;;3.92;;
36747;SDS011;22716;51.556;5.080;2023-06-24T11:27:13;7.43;;;2.78;;
36747;SDS011;22716;51.556;5.080;2023-06-24T11:29:40;3.88;;;2.80;;
36747;SDS011;22716;51.556;5.080;2023-06-24T11:32:08;4.57;;;3.13;;
36747;SDS011;22716;51.556;5.080;2023-06-24T11:34:35;3.88;;;3.25;;
36747;SDS011;22716;51.556;5.080;2023-06-24T11:37:10;3.60;;;2.92;;
36747;SDS011;22716;51.556;5.080;2023-06-24T11:39:38;4.85;;;3.70;;
36747;SDS011;22716;51.556;5.080;2023-06-24T11:42:07;8.50;;;3.58;;
36747;SDS011;22716;51.556;5.080;2023-06-24T11:44:35;3.83;;;3.22;;
36747;SDS011;22716;51.556;5.080;2023-06-24T11:47:08;4.95;;;3.38;;
36747;SDS011;22716;51.556;5.080;2023-06-24T11:49:48;4.78;;;2.78;;
36747;SDS011;22716;51.556;5.080;2023-06-24T11:52:16;6.22;;;4.07;;
36747;SDS011;22716;51.556;5.080;2023-06-24T11:54:43;6.63;;;3.70;;
36747;SDS011;22716;51.556;5.080;2023-06-24T11:57:10;5.05;;;3.25;;
36747;SDS011;22716;51.556;5.080;2023-06-24T11:59:38;5.95;;;4.00;;
36747;SDS011;22716;51.556;5.080;2023-06-24T12:02:05;4.78;;;3.53;;
36747;SDS011;22716;51.556;5.080;2023-06-24T12:04:33;6.57;;;3.67;;
36747;SDS011;22716;51.556;5.080;2023-06-24T12:07:00;8.05;;;3.40;;
36747;SDS011;22716;51.556;5.080;2023-06-24T12:09:28;7.65;;;4.28;;
36747;SDS011;22716;51.556;5.080;2023-06-24T12:11:55;9.73;;;4.00;;
36747;SDS011;22716;51.556;5.080;2023-06-24T12:14:22;5.70;;;3.28;;
36747;SDS011;22716;51.556;5.080;2023-06-24T12:16:48;5.07;;;3.28;;
36747;SDS011;22716;51.556;5.080;2023-06-24T12:19:15;4.38;;;3.97;;
36747;SDS011;22716;51.556;5.080;2023-06-24T12:21:43;7.35;;;5.75;;
36747;SDS011;22716;51.556;5.080;2023-06-24T12:24:10;6.07;;;3.97;;
36747;SDS011;22716;51.556;5.080;2023-06-24T12:26:38;5.63;;;3.85;;
36747;SDS011;22716;51.556;5.080;2023-06-24T12:29:05;5.75;;;3.40;;
36747;SDS011;22716;51.556;5.080;2023-06-24T12:31:32;13.02;;;4.35;;
36747;SDS011;22716;51.556;5.080;2023-06-24T12:33:59;4.18;;;3.00;;
36747;SDS011;22716;51.556;5.080;2023-06-24T12:36:26;5.80;;;2.72;;
36747;SDS011;22716;51.556;5.080;2023-06-24T12:38:54;5.05;;;3.70;;
36747;SDS011;22716;51.556;5.080;2023-06-24T12:41:21;4.75;;;3.78;;
36747;SDS011;22716;51.556;5.080;2023-06-24T12:43:48;3.72;;;2.83;;
36747;SDS011;22716;51.556;5.080;2023-06-24T12:46:14;5.47;;;3.30;;
36747;SDS011;22716;51.556;5.080;2023-06-24T12:48:41;4.97;;;3.25;;
36747;SDS011;22716;51.556;5.080;2023-06-24T12:51:09;5.50;;;2.95;;
36747;SDS011;22716;51.556;5.080;2023-06-24T12:53:36;5.00;;;3.60;;
36747;SDS011;22716;51.556;5.080;2023-06-24T12:56:04;4.28;;;3.38;;
36747;SDS011;22716;51.556;5.080;2023-06-24T12:58:31;4.40;;;4.00;;
36747;SDS011;22716;51.556;5.080;2023-06-24T13:00:57;4.97;;;3.30;;
36747;SDS011;22716;51.556;5.080;2023-06-24T13:03:24;7.57;;;2.88;;
36747;SDS011;22716;51.556;5.080;2023-06-24T13:05:52;4.20;;;3.10;;
36747;SDS011;22716;51.556;5.080;2023-06-24T13:08:18;4.38;;;3.30;;
36747;SDS011;22716;51.556;5.080;2023-06-24T13:10:45;4.63;;;3.40;;
36747;SDS011;22716;51.556;5.080;2023-06-24T13:13:13;5.15;;;3.70;;
36747;SDS011;22716;51.556;5.080;2023-06-24T13:15:40;3.65;;;2.90;;
36747;SDS011;22716;51.556;5.080;2023-06-24T13:18:07;6.03;;;3.03;;
36747;SDS011;22716;51.556;5.080;2023-06-24T13:20:34;4.68;;;2.83;;
36747;SDS011;22716;51.556;5.080;2023-06-24T13:23:00;3.63;;;3.30;;
36747;SDS011;22716;51.556;5.080;2023-06-24T13:25:27;5.10;;;3.35;;
36747;SDS011;22716;51.556;5.080;2023-06-24T13:27:54;7.28;;;3.15;;
36747;SDS011;22716;51.556;5.080;2023-06-24T13:30:22;5.85;;;2.63;;
36747;SDS011;22716;51.556;5.080;2023-06-24T13:32:49;4.63;;;3.38;;
36747;SDS011;22716;51.556;5.080;2023-06-24T13:35:16;3.95;;;2.97;;
36747;SDS011;22716;51.556;5.080;2023-06-24T13:37:42;10.82;;;3.65;;
36747;SDS011;22716;51.556;5.080;2023-06-24T13:40:10;3.53;;;2.92;;
36747;SDS011;22716;51.556;5.080;2023-06-24T13:42:37;4.18;;;2.75;;
36747;SDS011;22716;51.556;5.080;2023-06-24T13:45:04;8.00;;;3.63;;
36747;SDS011;22716;51.556;5.080;2023-06-24T13:47:33;3.58;;;2.90;;
36747;SDS011;22716;51.556;5.080;2023-06-24T13:50:00;4.20;;;2.70;;
36747;SDS011;22716;51.556;5.080;2023-06-24T13:52:27;7.40;;;2.88;;
36747;SDS011;22716;51.556;5.080;2023-06-24T13:54:54;4.82;;;3.13;;
36747;SDS011;22716;51.556;5.080;2023-06-24T13:57:21;6.55;;;2.88;;
36747;SDS011;22716;51.556;5.080;2023-06-24T13:59:48;3.13;;;2.35;;
36747;SDS011;22716;51.556;5.080;2023-06-24T14:02:15;3.25;;;2.58;;
36747;SDS011;22716;51.556;5.080;2023-06-24T14:04:43;3.67;;;3.20;;
36747;SDS011;22716;51.556;5.080;2023-06-24T14:07:09;3.00;;;2.28;;
36747;SDS011;22716;51.556;5.080;2023-06-24T14:09:37;4.88;;;2.78;;
36747;SDS011;22716;51.556;5.080;2023-06-24T14:12:05;4.88;;;3.22;;
36747;SDS011;22716;51.556;5.080;2023-06-24T14:14:33;3.97;;;2.80;;
36747;SDS011;22716;51.556;5.080;2023-06-24T14:17:01;3.72;;;2.45;;
36747;SDS011;22716;51.556;5.080;2023-06-24T14:19:28;3.85;;;2.53;;
36747;SDS011;22716;51.556;5.080;2023-06-24T14:21:56;5.28;;;2.70;;
36747;SDS011;22716;51.556;5.080;2023-06-24T14:24:23;3.95;;;2.80;;
36747;SDS011;22716;51.556;5.080;2023-06-24T14:26:50;3.70;;;2.33;;
36747;SDS011;22716;51.556;5.080;2023-06-24T14:29:17;4.22;;;2.67;;
36747;SDS011;22716;51.556;5.080;2023-06-24T14:31:44;4.55;;;2.70;;
36747;SDS011;22716;51.556;5.080;2023-06-24T14:34:11;4.65;;;2.50;;
36747;SDS011;22716;51.556;5.080;2023-06-24T14:36:37;2.83;;;1.90;;
36747;SDS011;22716;51.556;5.080;2023-06-24T14:39:05;3.03;;;2.20;;
36747;SDS011;22716;51.556;5.080;2023-06-24T14:41:32;2.85;;;2.10;;
36747;SDS011;22716;51.556;5.080;2023-06-24T14:43:59;2.70;;;2.33;;
36747;SDS011;22716;51.556;5.080;2023-06-24T14:46:26;3.15;;;2.30;;
36747;SDS011;22716;51.556;5.080;2023-06-24T14:48:53;4.70;;;3.05;;
36747;SDS011;22716;51.556;5.080;2023-06-24T14:51:20;5.45;;;3.03;;
36747;SDS011;22716;51.556;5.080;2023-06-24T14:53:48;4.45;;;2.97;;